sensor_id;sensor_type;location;lat;lon;timestamp;P1;durP1;ratioP1;P2;durP2;ratioP2
35919;SDS011;36160;53.370;-6.196;2023-04-24T05:29:00;18.42;;;3.47;;
35919;SDS011;36160;53.370;-6.196;2023-04-24T05:31:27;18.10;;;3.20;;
35919;SDS011;36160;53.370;-6.196;2023-04-24T05:33:53;9.63;;;2.25;;
35919;SDS011;36160;53.370;-6.196;2023-04-24T05:36:18;22.85;;;3.17;;
35919;SDS011;36160;53.370;-6.196;2023-04-24T05:38:44;16.60;;;3.00;;
35919;SDS011;36160;53.370;-6.196;2023-04-24T05:41:10;9.85;;;2.28;;
35919;SDS011;36160;53.370;-6.196;2023-04-24T05:43:35;12.38;;;2.70;;
35919;SDS011;36160;53.370;-6.196;2023-04-24T05:46:01;14.68;;;2.60;;
35919;SDS011;36160;53.370;-6.196;2023-04-24T05:48:27;10.48;;;2.70;;
35919;SDS011;36160;53.370;-6.196;2023-04-24T05:50:52;14.48;;;2.80;;
35919;SDS011;36160;53.370;-6.196;2023-04-24T05:53:18;12.00;;;3.28;;
35919;SDS011;36160;53.370;-6.196;2023-04-24T05:55:44;11.00;;;3.22;;
35919;SDS011;36160;53.370;-6.196;2023-04-24T05:58:10;12.38;;;2.80;;
35919;SDS011;36160;53.370;-6.196;2023-04-24T06:00:37;15.65;;;3.45;;
35919;SDS011;36160;53.370;-6.196;2023-04-24T06:03:04;16.25;;;3.78;;
35919;SDS011;36160;53.370;-6.196;2023-04-24T06:05:30;16.73;;;4.18;;
35919;SDS011;36160;53.370;-6.196;2023-04-24T06:07:56;22.10;;;4.18;;
35919;SDS011;36160;53.370;-6.196;2023-04-24T06:10:22;18.73;;;3.40;;
35919;SDS011;36160;53.370;-6.196;2023-04-24T06:12:48;20.70;;;4.28;;
35919;SDS011;36160;53.370;-6.196;2023-04-24T06:15:13;13.25;;;2.95;;
35919;SDS011;36160;53.370;-6.196;2023-04-24T06:17:39;11.60;;;3.08;;
35919;SDS011;36160;53.370;-6.196;2023-04-24T06:20:05;13.93;;;3.38;;
35919;SDS011;36160;53.370;-6.196;2023-04-24T06:22:31;15.25;;;3.88;;
35919;SDS011;36160;53.370;-6.196;2023-04-24T06:24:57;8.20;;;3.10;;
35919;SDS011;36160;53.370;-6.196;2023-04-24T06:27:24;6.90;;;2.28;;
35919;SDS011;36160;53.370;-6.196;2023-04-24T06:29:50;10.27;;;3.13;;
35919;SDS011;36160;53.370;-6.196;2023-04-24T06:32:20;6.28;;;2.30;;
35919;SDS011;36160;53.370;-6.196;2023-04-24T06:34:48;6.82;;;2.20;;
35919;SDS011;36160;53.370;-6.196;2023-04-24T06:37:15;7.53;;;1.90;;
35919;SDS011;36160;53.370;-6.196;2023-04-24T06:39:41;7.28;;;2.40;;
35919;SDS011;36160;53.370;-6.196;2023-04-24T06:42:07;10.23;;;1.75;;
35919;SDS011;36160;53.370;-6.196;2023-04-24T06:44:34;7.40;;;2.50;;
35919;SDS011;36160;53.370;-6.196;2023-04-24T06:47:05;6.50;;;2.05;;
35919;SDS011;36160;53.370;-6.196;2023-04-24T06:49:32;7.75;;;1.83;;
35919;SDS011;36160;53.370;-6.196;2023-04-24T06:51:58;3.20;;;1.45;;
35919;SDS011;36160;53.370;-6.196;2023-04-24T06:54:23;4.82;;;1.95;;
35919;SDS011;36160;53.370;-6.196;2023-04-24T06:56:49;4.35;;;1.92;;
35919;SDS011;36160;53.370;-6.196;2023-04-24T06:59:16;8.15;;;2.10;;
35919;SDS011;36160;53.370;-6.196;2023-04-24T07:01:42;12.23;;;3.13;;
35919;SDS011;36160;53.370;-6.196;2023-04-24T07:04:07;3.75;;;1.95;;
35919;SDS011;36160;53.370;-6.196;2023-04-24T07:06:33;4.75;;;1.70;;
35919;SDS011;36160;53.370;-6.196;2023-04-24T07:09:00;9.10;;;2.03;;
35919;SDS011;36160;53.370;-6.196;2023-04-24T07:11:28;12.90;;;3.40;;
35919;SDS011;36160;53.370;-6.196;2023-04-24T07:13:54;6.68;;;2.03;;
35919;SDS011;36160;53.370;-6.196;2023-04-24T07:16:20;10.70;;;1.90;;
35919;SDS011;36160;53.370;-6.196;2023-04-24T07:18:46;9.50;;;2.22;;
35919;SDS011;36160;53.370;-6.196;2023-04-24T07:21:12;8.32;;;1.83;;
35919;SDS011;36160;53.370;-6.196;2023-04-24T07:23:38;5.70;;;2.20;;
35919;SDS011;36160;53.370;-6.196;2023-04-24T07:26:03;7.47;;;3.03;;
35919;SDS011;36160;53.370;-6.196;2023-04-24T07:28:29;11.05;;;2.15;;
35919;SDS011;36160;53.370;-6.196;2023-04-24T07:30:57;7.55;;;1.92;;
35919;SDS011;36160;53.370;-6.196;2023-04-24T07:33:23;7.60;;;2.15;;
35919;SDS011;36160;53.370;-6.196;2023-04-24T07:35:49;4.90;;;2.15;;
35919;SDS011;36160;53.370;-6.196;2023-04-24T07:38:17;3.83;;;2.00;;
35919;SDS011;36160;53.370;-6.196;2023-04-24T07:40:47;7.88;;;2.08;;
35919;SDS011;36160;53.370;-6.196;2023-04-24T07:43:14;5.60;;;1.77;;
35919;SDS011;36160;53.370;-6.196;2023-04-24T07:45:40;7.93;;;2.08;;
35919;SDS011;36160;53.370;-6.196;2023-04-24T07:48:06;12.02;;;2.83;;
35919;SDS011;36160;53.370;-6.196;2023-04-24T07:50:34;10.65;;;3.17;;
35919;SDS011;36160;53.370;-6.196;2023-04-24T07:53:01;7.13;;;2.20;;
35919;SDS011;36160;53.370;-6.196;2023-04-24T07:55:27;9.43;;;3.50;;
35919;SDS011;36160;53.370;-6.196;2023-04-24T07:57:54;8.43;;;3.17;;
35919;SDS011;36160;53.370;-6.196;2023-04-24T08:00:20;7.70;;;2.63;;
35919;SDS011;36160;53.370;-6.196;2023-04-24T08:02:46;8.18;;;2.03;;
35919;SDS011;36160;53.370;-6.196;2023-04-24T08:05:12;6.63;;;1.95;;
35919;SDS011;36160;53.370;-6.196;2023-04-24T08:07:38;10.27;;;2.67;;
35919;SDS011;36160;53.370;-6.196;2023-04-24T08:10:04;6.97;;;2.47;;
35919;SDS011;36160;53.370;-6.196;2023-04-24T08:12:31;9.02;;;3.40;;
35919;SDS011;36160;53.370;-6.196;2023-04-24T08:14:56;10.13;;;2.78;;
35919;SDS011;36160;53.370;-6.196;2023-04-24T08:17:23;7.80;;;2.22;;
35919;SDS011;36160;53.370;-6.196;2023-04-24T08:19:50;9.23;;;3.22;;
35919;SDS011;36160;53.370;-6.196;2023-04-24T08:22:18;8.60;;;2.00;;
35919;SDS011;36160;53.370;-6.196;2023-04-24T08:24:44;6.50;;;2.00;;
35919;SDS011;36160;53.370;-6.196;2023-04-24T08:27:09;11.07;;;2.50;;
35919;SDS011;36160;53.370;-6.196;2023-04-24T08:29:37;16.23;;;2.78;;
35919;SDS011;36160;53.370;-6.196;2023-04-24T08:32:03;13.10;;;2.20;;
35919;SDS011;36160;53.370;-6.196;2023-04-24T08:34:28;9.48;;;2.25;;
35919;SDS011;36160;53.370;-6.196;2023-04-24T08:36:54;12.23;;;2.53;;
35919;SDS011;36160;53.370;-6.196;2023-04-24T08:39:20;9.23;;;2.30;;
35919;SDS011;36160;53.370;-6.196;2023-04-24T08:41:45;7.13;;;2.67;;
35919;SDS011;36160;53.370;-6.196;2023-04-24T08:44:14;5.85;;;2.03;;
35919;SDS011;36160;53.370;-6.196;2023-04-24T08:46:42;10.20;;;1.67;;
35919;SDS011;36160;53.370;-6.196;2023-04-24T08:49:10;8.48;;;2.38;;
35919;SDS011;36160;53.370;-6.196;2023-04-24T08:51:37;6.55;;;1.85;;
35919;SDS011;36160;53.370;-6.196;2023-04-24T08:54:04;14.27;;;2.60;;
35919;SDS011;36160;53.370;-6.196;2023-04-24T08:56:30;12.85;;;2.58;;
35919;SDS011;36160;53.370;-6.196;2023-04-24T08:58:58;3.95;;;1.70;;
35919;SDS011;36160;53.370;-6.196;2023-04-24T09:01:24;5.63;;;2.08;;
35919;SDS011;36160;53.370;-6.196;2023-04-24T09:03:51;6.85;;;2.17;;
35919;SDS011;36160;53.370;-6.196;2023-04-24T09:06:19;8.35;;;2.22;;
35919;SDS011;36160;53.370;-6.196;2023-04-24T09:08:47;6.60;;;2.17;;
35919;SDS011;36160;53.370;-6.196;2023-04-24T09:11:14;13.07;;;3.03;;
35919;SDS011;36160;53.370;-6.196;2023-04-24T09:13:40;10.02;;;3.78;;
35919;SDS011;36160;53.370;-6.196;2023-04-24T09:16:07;5.88;;;2.00;;
35919;SDS011;36160;53.370;-6.196;2023-04-24T09:18:32;7.72;;;2.67;;
35919;SDS011;36160;53.370;-6.196;2023-04-24T09:21:01;9.80;;;2.15;;
35919;SDS011;36160;53.370;-6.196;2023-04-24T09:23:28;12.23;;;3.30;;
35919;SDS011;36160;53.370;-6.196;2023-04-24T09:25:55;7.88;;;2.10;;
35919;SDS011;36160;53.370;-6.196;2023-04-24T09:28:25;7.95;;;2.42;;
35919;SDS011;36160;53.370;-6.196;2023-04-24T09:33:38;6.68;;;2.83;;
35919;SDS011;36160;53.370;-6.196;2023-04-24T09:36:04;6.45;;;1.88;;
35919;SDS011;36160;53.370;-6.196;2023-04-24T09:38:39;8.50;;;1.95;;
35919;SDS011;36160;53.370;-6.196;2023-04-24T09:41:06;10.55;;;2.38;;
35919;SDS011;36160;53.370;-6.196;2023-04-24T09:43:33;9.93;;;1.92;;
35919;SDS011;36160;53.370;-6.196;2023-04-24T09:46:04;8.38;;;1.98;;
35919;SDS011;36160;53.370;-6.196;2023-04-24T09:48:31;10.18;;;2.45;;
35919;SDS011;36160;53.370;-6.196;2023-04-24T09:50:58;7.85;;;2.03;;
35919;SDS011;36160;53.370;-6.196;2023-04-24T09:53:25;9.63;;;1.70;;
35919;SDS011;36160;53.370;-6.196;2023-04-24T09:55:52;9.38;;;2.47;;
35919;SDS011;36160;53.370;-6.196;2023-04-24T09:58:18;4.57;;;2.10;;
35919;SDS011;36160;53.370;-6.196;2023-04-24T10:00:52;12.80;;;3.03;;
35919;SDS011;36160;53.370;-6.196;2023-04-24T10:03:19;6.60;;;2.05;;
35919;SDS011;36160;53.370;-6.196;2023-04-24T10:05:46;6.28;;;1.67;;
35919;SDS011;36160;53.370;-6.196;2023-04-24T10:08:12;8.90;;;2.38;;
35919;SDS011;36160;53.370;-6.196;2023-04-24T10:10:40;7.45;;;2.00;;
35919;SDS011;36160;53.370;-6.196;2023-04-24T10:13:08;11.15;;;2.50;;
35919;SDS011;36160;53.370;-6.196;2023-04-24T10:15:36;6.70;;;1.95;;
35919;SDS011;36160;53.370;-6.196;2023-04-24T10:18:06;7.85;;;1.90;;
35919;SDS011;36160;53.370;-6.196;2023-04-24T10:20:32;10.07;;;2.47;;
35919;SDS011;36160;53.370;-6.196;2023-04-24T10:22:59;8.05;;;2.00;;
35919;SDS011;36160;53.370;-6.196;2023-04-24T10:25:29;9.30;;;2.60;;
35919;SDS011;36160;53.370;-6.196;2023-04-24T10:27:57;4.83;;;1.80;;
35919;SDS011;36160;53.370;-6.196;2023-04-24T10:30:25;10.95;;;2.90;;
35919;SDS011;36160;53.370;-6.196;2023-04-24T10:32:51;8.60;;;2.92;;
35919;SDS011;36160;53.370;-6.196;2023-04-24T10:35:17;9.27;;;2.10;;
35919;SDS011;36160;53.370;-6.196;2023-04-24T10:37:51;6.65;;;2.53;;
35919;SDS011;36160;53.370;-6.196;2023-04-24T10:40:34;6.60;;;1.73;;
35919;SDS011;36160;53.370;-6.196;2023-04-24T10:43:07;7.93;;;2.00;;
35919;SDS011;36160;53.370;-6.196;2023-04-24T10:45:35;7.90;;;2.28;;
35919;SDS011;36160;53.370;-6.196;2023-04-24T10:48:08;15.00;;;2.33;;
35919;SDS011;36160;53.370;-6.196;2023-04-24T10:50:50;12.60;;;2.90;;
35919;SDS011;36160;53.370;-6.196;2023-04-24T10:53:18;4.45;;;2.75;;
35919;SDS011;36160;53.370;-6.196;2023-04-24T10:55:51;9.20;;;2.08;;
35919;SDS011;36160;53.370;-6.196;2023-04-24T10:58:50;8.23;;;1.92;;
35919;SDS011;36160;53.370;-6.196;2023-04-24T11:03:55;6.63;;;2.25;;
35919;SDS011;36160;53.370;-6.196;2023-04-24T11:06:29;6.60;;;1.80;;
35919;SDS011;36160;53.370;-6.196;2023-04-24T11:09:06;6.78;;;2.03;;
35919;SDS011;36160;53.370;-6.196;2023-04-24T11:11:34;12.82;;;2.08;;
35919;SDS011;36160;53.370;-6.196;2023-04-24T11:14:03;12.20;;;2.35;;
35919;SDS011;36160;53.370;-6.196;2023-04-24T11:19:25;27.88;;;4.00;;
35919;SDS011;36160;53.370;-6.196;2023-04-24T11:26:58;7.88;;;2.03;;
35919;SDS011;36160;53.370;-6.196;2023-04-24T11:29:38;9.65;;;3.38;;
35919;SDS011;36160;53.370;-6.196;2023-04-24T11:32:25;8.55;;;3.08;;
35919;SDS011;36160;53.370;-6.196;2023-04-24T11:34:57;14.32;;;3.97;;
35919;SDS011;36160;53.370;-6.196;2023-04-24T11:37:29;8.05;;;2.03;;
35919;SDS011;36160;53.370;-6.196;2023-04-24T11:39:59;4.82;;;2.15;;
35919;SDS011;36160;53.370;-6.196;2023-04-24T11:42:25;10.82;;;3.00;;
35919;SDS011;36160;53.370;-6.196;2023-04-24T11:44:54;13.20;;;2.53;;
35919;SDS011;36160;53.370;-6.196;2023-04-24T11:47:27;8.75;;;1.90;;
35919;SDS011;36160;53.370;-6.196;2023-04-24T11:49:58;10.35;;;2.20;;
35919;SDS011;36160;53.370;-6.196;2023-04-24T11:52:25;8.70;;;2.38;;
35919;SDS011;36160;53.370;-6.196;2023-04-24T11:55:01;8.20;;;2.25;;
35919;SDS011;36160;53.370;-6.196;2023-04-24T11:57:28;12.50;;;3.95;;
35919;SDS011;36160;53.370;-6.196;2023-04-24T11:59:59;14.80;;;2.85;;
35919;SDS011;36160;53.370;-6.196;2023-04-24T12:02:26;9.63;;;2.17;;
35919;SDS011;36160;53.370;-6.196;2023-04-24T12:04:55;8.15;;;2.58;;
35919;SDS011;36160;53.370;-6.196;2023-04-24T12:07:22;6.47;;;1.95;;
35919;SDS011;36160;53.370;-6.196;2023-04-24T12:12:24;9.00;;;1.98;;
35919;SDS011;36160;53.370;-6.196;2023-04-24T12:14:52;10.18;;;2.42;;
35919;SDS011;36160;53.370;-6.196;2023-04-24T12:17:30;4.53;;;2.00;;
35919;SDS011;36160;53.370;-6.196;2023-04-24T12:20:01;11.52;;;2.33;;
35919;SDS011;36160;53.370;-6.196;2023-04-24T12:22:49;9.18;;;2.75;;
35919;SDS011;36160;53.370;-6.196;2023-04-24T12:25:19;9.00;;;2.00;;
35919;SDS011;36160;53.370;-6.196;2023-04-24T12:27:46;11.43;;;2.67;;
35919;SDS011;36160;53.370;-6.196;2023-04-24T12:32:46;9.52;;;2.20;;
35919;SDS011;36160;53.370;-6.196;2023-04-24T12:35:14;16.02;;;3.40;;
35919;SDS011;36160;53.370;-6.196;2023-04-24T12:37:45;5.32;;;1.88;;
35919;SDS011;36160;53.370;-6.196;2023-04-24T12:40:11;12.55;;;2.97;;
35919;SDS011;36160;53.370;-6.196;2023-04-24T12:42:50;9.52;;;2.70;;
35919;SDS011;36160;53.370;-6.196;2023-04-24T12:45:17;9.20;;;1.95;;
35919;SDS011;36160;53.370;-6.196;2023-04-24T12:47:44;11.77;;;2.03;;
35919;SDS011;36160;53.370;-6.196;2023-04-24T12:50:11;6.20;;;1.70;;
35919;SDS011;36160;53.370;-6.196;2023-04-24T12:52:39;11.13;;;2.33;;
35919;SDS011;36160;53.370;-6.196;2023-04-24T12:55:05;12.50;;;2.60;;
35919;SDS011;36160;53.370;-6.196;2023-04-24T12:57:36;15.35;;;2.15;;
35919;SDS011;36160;53.370;-6.196;2023-04-24T13:00:03;11.65;;;1.88;;
35919;SDS011;36160;53.370;-6.196;2023-04-24T13:02:30;8.30;;;2.08;;
35919;SDS011;36160;53.370;-6.196;2023-04-24T13:04:56;5.30;;;1.85;;
35919;SDS011;36160;53.370;-6.196;2023-04-24T13:07:22;8.95;;;3.58;;
35919;SDS011;36160;53.370;-6.196;2023-04-24T13:09:49;11.40;;;5.93;;
35919;SDS011;36160;53.370;-6.196;2023-04-24T13:12:16;6.35;;;2.03;;
35919;SDS011;36160;53.370;-6.196;2023-04-24T13:14:42;15.90;;;2.60;;
35919;SDS011;36160;53.370;-6.196;2023-04-24T13:17:08;16.13;;;2.33;;
35919;SDS011;36160;53.370;-6.196;2023-04-24T13:19:38;10.07;;;2.15;;
35919;SDS011;36160;53.370;-6.196;2023-04-24T13:22:06;8.82;;;3.30;;
35919;SDS011;36160;53.370;-6.196;2023-04-24T13:24:33;9.57;;;2.22;;
35919;SDS011;36160;53.370;-6.196;2023-04-24T13:26:59;7.78;;;2.15;;
35919;SDS011;36160;53.370;-6.196;2023-04-24T13:29:25;7.70;;;2.13;;
35919;SDS011;36160;53.370;-6.196;2023-04-24T13:31:52;8.13;;;1.85;;
35919;SDS011;36160;53.370;-6.196;2023-04-24T13:34:20;6.32;;;2.20;;
35919;SDS011;36160;53.370;-6.196;2023-04-24T13:36:46;7.80;;;2.55;;
35919;SDS011;36160;53.370;-6.196;2023-04-24T13:39:12;11.77;;;2.08;;
35919;SDS011;36160;53.370;-6.196;2023-04-24T13:41:37;9.05;;;2.70;;
35919;SDS011;36160;53.370;-6.196;2023-04-24T13:44:03;8.60;;;2.33;;
35919;SDS011;36160;53.370;-6.196;2023-04-24T13:46:29;8.80;;;1.77;;
35919;SDS011;36160;53.370;-6.196;2023-04-24T13:48:56;7.47;;;1.90;;
35919;SDS011;36160;53.370;-6.196;2023-04-24T13:51:22;8.02;;;2.13;;
35919;SDS011;36160;53.370;-6.196;2023-04-24T13:53:48;9.90;;;2.47;;
35919;SDS011;36160;53.370;-6.196;2023-04-24T13:56:14;10.55;;;1.95;;
35919;SDS011;36160;53.370;-6.196;2023-04-24T13:58:40;5.20;;;2.58;;
35919;SDS011;36160;53.370;-6.196;2023-04-24T14:01:06;7.82;;;1.80;;
35919;SDS011;36160;53.370;-6.196;2023-04-24T14:03:33;6.50;;;2.33;;
35919;SDS011;36160;53.370;-6.196;2023-04-24T14:05:58;6.82;;;1.90;;
35919;SDS011;36160;53.370;-6.196;2023-04-24T14:08:24;7.75;;;1.80;;
35919;SDS011;36160;53.370;-6.196;2023-04-24T14:10:50;6.72;;;2.05;;
35919;SDS011;36160;53.370;-6.196;2023-04-24T14:13:16;6.38;;;1.85;;
35919;SDS011;36160;53.370;-6.196;2023-04-24T14:15:42;5.68;;;2.33;;
35919;SDS011;36160;53.370;-6.196;2023-04-24T14:18:08;7.07;;;1.73;;
35919;SDS011;36160;53.370;-6.196;2023-04-24T14:20:33;6.82;;;2.47;;
35919;SDS011;36160;53.370;-6.196;2023-04-24T14:22:59;11.50;;;2.85;;
35919;SDS011;36160;53.370;-6.196;2023-04-24T14:25:25;9.15;;;2.72;;
35919;SDS011;36160;53.370;-6.196;2023-04-24T14:27:51;10.35;;;2.75;;
35919;SDS011;36160;53.370;-6.196;2023-04-24T14:30:17;5.70;;;2.17;;
35919;SDS011;36160;53.370;-6.196;2023-04-24T14:32:43;10.50;;;3.25;;
35919;SDS011;36160;53.370;-6.196;2023-04-24T14:35:08;5.25;;;2.33;;
35919;SDS011;36160;53.370;-6.196;2023-04-24T14:37:34;5.75;;;1.90;;
35919;SDS011;36160;53.370;-6.196;2023-04-24T14:40:01;11.80;;;3.50;;
35919;SDS011;36160;53.370;-6.196;2023-04-24T14:42:27;13.50;;;2.55;;
35919;SDS011;36160;53.370;-6.196;2023-04-24T14:44:53;6.93;;;2.22;;
35919;SDS011;36160;53.370;-6.196;2023-04-24T14:47:19;5.38;;;1.95;;
35919;SDS011;36160;53.370;-6.196;2023-04-24T14:49:47;7.03;;;2.35;;
35919;SDS011;36160;53.370;-6.196;2023-04-24T14:52:15;7.57;;;2.92;;
35919;SDS011;36160;53.370;-6.196;2023-04-24T14:54:41;5.22;;;2.13;;
35919;SDS011;36160;53.370;-6.196;2023-04-24T14:57:07;4.15;;;1.50;;
35919;SDS011;36160;53.370;-6.196;2023-04-24T14:59:33;2.80;;;1.58;;
35919;SDS011;36160;53.370;-6.196;2023-04-24T15:01:59;8.52;;;2.08;;
35919;SDS011;36160;53.370;-6.196;2023-04-24T15:04:25;6.90;;;2.78;;
35919;SDS011;36160;53.370;-6.196;2023-04-24T15:06:51;9.38;;;2.60;;
35919;SDS011;36160;53.370;-6.196;2023-04-24T15:09:19;14.90;;;2.50;;
35919;SDS011;36160;53.370;-6.196;2023-04-24T15:11:49;7.03;;;2.53;;
35919;SDS011;36160;53.370;-6.196;2023-04-24T15:14:15;7.85;;;2.13;;
35919;SDS011;36160;53.370;-6.196;2023-04-24T15:16:41;5.07;;;2.00;;
35919;SDS011;36160;53.370;-6.196;2023-04-24T15:19:07;8.23;;;3.47;;
35919;SDS011;36160;53.370;-6.196;2023-04-24T15:21:33;9.60;;;2.60;;
35919;SDS011;36160;53.370;-6.196;2023-04-24T15:23:59;7.13;;;2.30;;
35919;SDS011;36160;53.370;-6.196;2023-04-24T15:26:24;4.50;;;1.58;;
35919;SDS011;36160;53.370;-6.196;2023-04-24T15:28:51;5.28;;;2.00;;
35919;SDS011;36160;53.370;-6.196;2023-04-24T15:31:17;5.60;;;3.05;;
35919;SDS011;36160;53.370;-6.196;2023-04-24T15:33:43;5.35;;;1.92;;
35919;SDS011;36160;53.370;-6.196;2023-04-24T15:36:09;6.25;;;2.40;;
35919;SDS011;36160;53.370;-6.196;2023-04-24T15:38:35;6.53;;;1.58;;
35919;SDS011;36160;53.370;-6.196;2023-04-24T15:41:02;3.45;;;1.90;;
35919;SDS011;36160;53.370;-6.196;2023-04-24T15:43:27;4.35;;;1.48;;
35919;SDS011;36160;53.370;-6.196;2023-04-24T15:45:59;2.80;;;1.30;;
35919;SDS011;36160;53.370;-6.196;2023-04-24T15:48:24;8.75;;;1.70;;
35919;SDS011;36160;53.370;-6.196;2023-04-24T15:50:50;4.78;;;1.60;;
35919;SDS011;36160;53.370;-6.196;2023-04-24T15:53:16;15.18;;;3.85;;
35919;SDS011;36160;53.370;-6.196;2023-04-24T15:55:49;3.58;;;1.52;;
35919;SDS011;36160;53.370;-6.196;2023-04-24T15:58:16;7.03;;;2.28;;
35919;SDS011;36160;53.370;-6.196;2023-04-24T16:00:43;9.20;;;2.08;;
35919;SDS011;36160;53.370;-6.196;2023-04-24T16:03:08;8.70;;;1.92;;
35919;SDS011;36160;53.370;-6.196;2023-04-24T16:05:34;9.65;;;2.60;;
35919;SDS011;36160;53.370;-6.196;2023-04-24T16:08:00;4.32;;;2.08;;
35919;SDS011;36160;53.370;-6.196;2023-04-24T16:10:26;4.50;;;1.70;;
35919;SDS011;36160;53.370;-6.196;2023-04-24T16:12:52;11.88;;;1.90;;
35919;SDS011;36160;53.370;-6.196;2023-04-24T16:15:18;10.07;;;3.47;;
35919;SDS011;36160;53.370;-6.196;2023-04-24T16:17:45;6.65;;;2.28;;
35919;SDS011;36160;53.370;-6.196;2023-04-24T16:20:12;5.00;;;1.50;;
35919;SDS011;36160;53.370;-6.196;2023-04-24T16:22:38;5.78;;;1.83;;
35919;SDS011;36160;53.370;-6.196;2023-04-24T16:25:04;5.03;;;1.90;;
35919;SDS011;36160;53.370;-6.196;2023-04-24T16:27:31;4.22;;;1.42;;
35919;SDS011;36160;53.370;-6.196;2023-04-24T16:29:57;6.40;;;1.58;;
35919;SDS011;36160;53.370;-6.196;2023-04-24T16:32:23;6.78;;;1.90;;
35919;SDS011;36160;53.370;-6.196;2023-04-24T16:34:49;3.45;;;1.83;;
35919;SDS011;36160;53.370;-6.196;2023-04-24T16:37:15;5.22;;;2.55;;
35919;SDS011;36160;53.370;-6.196;2023-04-24T16:39:41;8.63;;;2.10;;
35919;SDS011;36160;53.370;-6.196;2023-04-24T16:42:10;8.93;;;2.17;;
35919;SDS011;36160;53.370;-6.196;2023-04-24T16:44:37;7.22;;;1.60;;
35919;SDS011;36160;53.370;-6.196;2023-04-24T16:47:03;11.40;;;2.25;;
35919;SDS011;36160;53.370;-6.196;2023-04-24T16:49:30;8.00;;;1.77;;
35919;SDS011;36160;53.370;-6.196;2023-04-24T16:51:56;9.52;;;1.90;;
35919;SDS011;36160;53.370;-6.196;2023-04-24T16:54:23;5.30;;;1.90;;
35919;SDS011;36160;53.370;-6.196;2023-04-24T16:56:49;4.93;;;1.73;;
35919;SDS011;36160;53.370;-6.196;2023-04-24T16:59:14;5.97;;;1.55;;
35919;SDS011;36160;53.370;-6.196;2023-04-24T17:01:40;5.13;;;1.67;;
35919;SDS011;36160;53.370;-6.196;2023-04-24T17:04:06;4.35;;;2.00;;
35919;SDS011;36160;53.370;-6.196;2023-04-24T17:06:32;6.95;;;2.03;;
35919;SDS011;36160;53.370;-6.196;2023-04-24T17:08:57;4.38;;;2.00;;
35919;SDS011;36160;53.370;-6.196;2023-04-24T17:11:24;6.53;;;1.88;;
35919;SDS011;36160;53.370;-6.196;2023-04-24T17:13:50;6.78;;;2.97;;
35919;SDS011;36160;53.370;-6.196;2023-04-24T17:16:16;4.13;;;1.75;;
35919;SDS011;36160;53.370;-6.196;2023-04-24T17:18:42;6.60;;;2.38;;
35919;SDS011;36160;53.370;-6.196;2023-04-24T17:21:07;7.40;;;2.00;;
35919;SDS011;36160;53.370;-6.196;2023-04-24T17:23:33;8.30;;;2.10;;
35919;SDS011;36160;53.370;-6.196;2023-04-24T17:25:59;3.58;;;1.98;;
35919;SDS011;36160;53.370;-6.196;2023-04-24T17:28:28;3.72;;;2.10;;
35919;SDS011;36160;53.370;-6.196;2023-04-24T17:30:55;8.05;;;2.80;;
35919;SDS011;36160;53.370;-6.196;2023-04-24T17:33:26;2.92;;;1.52;;
35919;SDS011;36160;53.370;-6.196;2023-04-24T17:35:53;10.15;;;2.60;;
35919;SDS011;36160;53.370;-6.196;2023-04-24T17:38:19;6.65;;;2.30;;
35919;SDS011;36160;53.370;-6.196;2023-04-24T17:40:45;6.38;;;2.35;;
35919;SDS011;36160;53.370;-6.196;2023-04-24T17:43:11;5.00;;;2.13;;
35919;SDS011;36160;53.370;-6.196;2023-04-24T17:45:42;5.63;;;2.10;;
35919;SDS011;36160;53.370;-6.196;2023-04-24T17:48:11;5.45;;;1.52;;
35919;SDS011;36160;53.370;-6.196;2023-04-24T17:50:37;9.10;;;1.85;;
35919;SDS011;36160;53.370;-6.196;2023-04-24T17:53:03;8.50;;;2.15;;
35919;SDS011;36160;53.370;-6.196;2023-04-24T17:55:29;4.75;;;1.48;;
35919;SDS011;36160;53.370;-6.196;2023-04-24T17:57:55;16.55;;;2.72;;
35919;SDS011;36160;53.370;-6.196;2023-04-24T18:00:20;5.82;;;2.10;;
35919;SDS011;36160;53.370;-6.196;2023-04-24T18:02:46;8.63;;;2.95;;
35919;SDS011;36160;53.370;-6.196;2023-04-24T18:05:13;10.93;;;3.58;;
35919;SDS011;36160;53.370;-6.196;2023-04-24T18:07:39;6.93;;;3.17;;
35919;SDS011;36160;53.370;-6.196;2023-04-24T18:10:05;8.10;;;4.32;;
35919;SDS011;36160;53.370;-6.196;2023-04-24T18:12:31;8.68;;;4.80;;
35919;SDS011;36160;53.370;-6.196;2023-04-24T18:14:57;8.25;;;4.05;;
35919;SDS011;36160;53.370;-6.196;2023-04-24T18:17:23;7.03;;;2.38;;
35919;SDS011;36160;53.370;-6.196;2023-04-24T18:19:49;3.85;;;2.15;;
35919;SDS011;36160;53.370;-6.196;2023-04-24T18:22:15;4.40;;;2.28;;
35919;SDS011;36160;53.370;-6.196;2023-04-24T18:24:40;11.15;;;3.45;;
35919;SDS011;36160;53.370;-6.196;2023-04-24T18:27:06;6.82;;;2.15;;
35919;SDS011;36160;53.370;-6.196;2023-04-24T18:29:32;10.02;;;3.20;;
35919;SDS011;36160;53.370;-6.196;2023-04-24T18:31:58;3.83;;;2.00;;
35919;SDS011;36160;53.370;-6.196;2023-04-24T18:34:23;4.90;;;1.60;;
35919;SDS011;36160;53.370;-6.196;2023-04-24T18:36:50;3.70;;;1.45;;
35919;SDS011;36160;53.370;-6.196;2023-04-24T18:39:16;8.98;;;2.08;;
35919;SDS011;36160;53.370;-6.196;2023-04-24T18:41:41;5.07;;;1.95;;
35919;SDS011;36160;53.370;-6.196;2023-04-24T18:44:07;7.22;;;1.73;;
35919;SDS011;36160;53.370;-6.196;2023-04-24T18:46:34;4.93;;;1.73;;
35919;SDS011;36160;53.370;-6.196;2023-04-24T18:49:02;6.65;;;2.22;;
35919;SDS011;36160;53.370;-6.196;2023-04-24T18:51:28;5.38;;;2.83;;
35919;SDS011;36160;53.370;-6.196;2023-04-24T18:53:54;5.97;;;2.50;;
35919;SDS011;36160;53.370;-6.196;2023-04-24T18:56:20;8.80;;;1.80;;
35919;SDS011;36160;53.370;-6.196;2023-04-24T18:58:46;3.60;;;1.95;;
35919;SDS011;36160;53.370;-6.196;2023-04-24T19:01:12;3.92;;;1.90;;
35919;SDS011;36160;53.370;-6.196;2023-04-24T19:03:39;5.70;;;1.75;;
35919;SDS011;36160;53.370;-6.196;2023-04-24T19:06:05;4.60;;;1.60;;
35919;SDS011;36160;53.370;-6.196;2023-04-24T19:08:30;7.40;;;1.60;;
35919;SDS011;36160;53.370;-6.196;2023-04-24T19:10:56;8.68;;;2.67;;
35919;SDS011;36160;53.370;-6.196;2023-04-24T19:13:22;5.82;;;1.98;;
35919;SDS011;36160;53.370;-6.196;2023-04-24T19:15:48;4.80;;;1.67;;
35919;SDS011;36160;53.370;-6.196;2023-04-24T19:18:13;5.20;;;2.00;;
35919;SDS011;36160;53.370;-6.196;2023-04-24T19:20:41;5.18;;;2.28;;
35919;SDS011;36160;53.370;-6.196;2023-04-24T19:23:08;4.55;;;2.80;;
35919;SDS011;36160;53.370;-6.196;2023-04-24T19:25:33;4.10;;;1.98;;
35919;SDS011;36160;53.370;-6.196;2023-04-24T19:28:01;5.75;;;2.33;;
35919;SDS011;36160;53.370;-6.196;2023-04-24T19:30:26;4.47;;;2.47;;
35919;SDS011;36160;53.370;-6.196;2023-04-24T19:32:52;8.20;;;2.63;;
35919;SDS011;36160;53.370;-6.196;2023-04-24T19:35:18;6.97;;;2.67;;
35919;SDS011;36160;53.370;-6.196;2023-04-24T19:37:43;8.43;;;2.38;;
35919;SDS011;36160;53.370;-6.196;2023-04-24T19:40:09;9.35;;;2.70;;
35919;SDS011;36160;53.370;-6.196;2023-04-24T19:42:36;7.00;;;2.53;;
35919;SDS011;36160;53.370;-6.196;2023-04-24T19:45:02;10.48;;;2.78;;
35919;SDS011;36160;53.370;-6.196;2023-04-24T19:47:28;10.77;;;2.97;;
35919;SDS011;36160;53.370;-6.196;2023-04-24T19:49:55;7.03;;;2.97;;
35919;SDS011;36160;53.370;-6.196;2023-04-24T19:52:20;6.07;;;3.63;;
35919;SDS011;36160;53.370;-6.196;2023-04-24T19:54:46;6.32;;;2.92;;
35919;SDS011;36160;53.370;-6.196;2023-04-24T19:57:12;7.03;;;3.20;;
35919;SDS011;36160;53.370;-6.196;2023-04-24T19:59:38;8.48;;;3.08;;
35919;SDS011;36160;53.370;-6.196;2023-04-24T20:02:03;9.65;;;3.95;;
35919;SDS011;36160;53.370;-6.196;2023-04-24T20:04:29;13.95;;;5.50;;
35919;SDS011;36160;53.370;-6.196;2023-04-24T20:06:56;27.08;;;9.82;;
35919;SDS011;36160;53.370;-6.196;2023-04-24T20:09:22;15.00;;;7.63;;
35919;SDS011;36160;53.370;-6.196;2023-04-24T20:11:47;22.73;;;8.63;;
35919;SDS011;36160;53.370;-6.196;2023-04-24T20:14:15;19.63;;;8.82;;
35919;SDS011;36160;53.370;-6.196;2023-04-24T20:16:41;27.27;;;11.40;;